Time;durP1;ratioP1;P1;durP2;ratioP2;P2;SDS_P1;SDS_P2;PMS_P1;PMS_P2;Temp;Humidity;BMP_temperature;BMP_pressure;BME280_temperature;BME280_humidity;BME280_pressure;Samples;Min_cycle;Max_cycle;Signal;HPM_P1;HPM_P2
2022/01/12 00:01:12;;;;;;;6.88;3.92;;;;;;;;;;5093472;28;20377;-70
2022/01/12 00:03:38;;;;;;;8.45;4.72;;;;;;;;;;5094157;28;20012;-81
2022/01/12 00:06:05;;;;;;;7.22;4.47;;;;;;;;;;5094313;28;20353;-80
2022/01/12 00:08:32;;;;;;;7.43;4.43;;;;;;;;;;5094261;28;20081;-75
2022/01/12 00:10:59;;;;;;;6.90;3.75;;;;;;;;;;5094138;28;20094;-78
2022/01/12 00:13:25;;;;;;;7.00;4.00;;;;;;;;;;5094038;28;20024;-74
2022/01/12 00:15:51;;;;;;;7.63;4.38;;;;;;;;;;5094146;28;20103;-74
2022/01/12 00:18:18;;;;;;;6.82;4.18;;;;;;;;;;5092965;28;20078;-66
2022/01/12 00:20:44;;;;;;;10.45;4.20;;;;;;;;;;5093882;28;20056;-70
2022/01/12 00:23:10;;;;;;;6.55;3.88;;;;;;;;;;5092537;28;20028;-78
2022/01/12 00:33:52;;;;;;;7.30;4.38;;;;;;;;;;5092789;28;20112;-67
2022/01/12 00:36:18;;;;;;;10.45;4.50;;;;;;;;;;5093692;28;20027;-72
2022/01/12 00:38:45;;;;;;;8.18;4.68;;;;;;;;;;5093504;28;20078;-65
2022/01/12 00:41:11;;;;;;;8.35;4.60;;;;;;;;;;5093373;28;20027;-65
2022/01/12 00:43:42;;;;;;;8.52;4.95;;;;;;;;;;5093923;28;20028;-73
2022/01/12 00:46:08;;;;;;;7.93;4.22;;;;;;;;;;5074104;28;20405;-65
2022/01/12 00:48:36;;;;;;;7.72;4.30;;;;;;;;;;5073045;28;20040;-70
2022/01/12 00:51:03;;;;;;;7.50;4.25;;;;;;;;;;5073836;28;20060;-76
2022/01/12 00:53:29;;;;;;;8.70;4.53;;;;;;;;;;5073180;28;20112;-80
2022/01/12 00:55:55;;;;;;;8.20;4.70;;;;;;;;;;5073475;28;20465;-80
2022/01/12 00:58:21;;;;;;;8.07;4.60;;;;;;;;;;5094049;28;20032;-71
2022/01/12 01:00:48;;;;;;;6.85;3.88;;;;;;;;;;5098858;28;20077;-76
2022/01/12 01:03:16;;;;;;;8.18;4.43;;;;;;;;;;5094709;28;20046;-65
2022/01/12 01:05:42;;;;;;;7.63;4.55;;;;;;;;;;5091857;28;20551;-64
2022/01/12 01:08:09;;;;;;;8.77;3.92;;;;;;;;;;5092074;28;20024;-78
2022/01/12 01:10:46;;;;;;;7.65;4.07;;;;;;;;;;5092899;28;20016;-77
2022/01/12 01:13:14;;;;;;;8.68;4.78;;;;;;;;;;5092910;28;20334;-71
2022/01/12 01:26:30;;;;;;;8.73;4.00;;;;;;;;;;5074964;28;20044;-74
2022/01/12 01:28:56;;;;;;;8.68;4.78;;;;;;;;;;5072648;28;20021;-75
2022/01/12 01:31:29;;;;;;;8.07;4.80;;;;;;;;;;5071553;28;20025;-80
2022/01/12 01:33:55;;;;;;;8.23;4.78;;;;;;;;;;5072263;28;20020;-69
2022/01/12 01:36:26;;;;;;;6.20;3.97;;;;;;;;;;5070879;28;20447;-71
2022/01/12 01:38:52;;;;;;;7.32;4.30;;;;;;;;;;5072037;28;20033;-75
2022/01/12 01:41:18;;;;;;;7.80;4.80;;;;;;;;;;5072027;28;20021;-69
2022/01/12 01:44:10;;;;;;;7.57;4.18;;;;;;;;;;5090958;28;20499;-76
2022/01/12 01:54:51;;;;;;;7.40;4.68;;;;;;;;;;5072662;28;20035;-76
2022/01/12 01:57:17;;;;;;;8.88;4.95;;;;;;;;;;5079990;28;20021;-73
2022/01/12 01:59:45;;;;;;;8.95;5.05;;;;;;;;;;5075028;28;20084;-73
2022/01/12 02:02:11;;;;;;;8.25;4.65;;;;;;;;;;5092189;28;20104;-80
2022/01/12 02:04:37;;;;;;;8.35;4.63;;;;;;;;;;5080581;28;20426;-74
2022/01/12 02:07:03;;;;;;;7.63;4.63;;;;;;;;;;5071757;28;20030;-68
2022/01/12 02:09:29;;;;;;;8.30;4.55;;;;;;;;;;5089064;28;20099;-71
2022/01/12 02:11:55;;;;;;;28.52;5.53;;;;;;;;;;5081665;28;20028;-74
2022/01/12 02:14:22;;;;;;;7.93;4.38;;;;;;;;;;5071644;28;20074;-71
2022/01/12 02:17:02;;;;;;;10.73;4.88;;;;;;;;;;5070366;28;20552;-78
2022/01/12 02:19:50;;;;;;;8.88;4.35;;;;;;;;;;5071535;28;20039;-72
2022/01/12 02:36:09;;;;;;;8.50;4.53;;;;;;;;;;5071542;28;20032;-78
2022/01/12 02:41:20;;;;;;;8.55;4.78;;;;;;;;;;5071477;28;20027;-76
2022/01/12 02:54:42;;;;;;;8.93;4.70;;;;;;;;;;5071632;28;20025;-80
2022/01/12 02:57:08;;;;;;;7.95;4.90;;;;;;;;;;5081084;28;20031;-78
2022/01/12 02:59:34;;;;;;;7.70;4.35;;;;;;;;;;5091075;28;20090;-77
2022/01/12 03:02:18;;;;;;;7.65;4.55;;;;;;;;;;5090322;28;20027;-64
2022/01/12 03:04:58;;;;;;;7.70;4.40;;;;;;;;;;5091693;28;20111;-79
2022/01/12 03:07:24;;;;;;;7.80;4.55;;;;;;;;;;5091222;28;20487;-75
2022/01/12 03:09:50;;;;;;;7.30;4.25;;;;;;;;;;5089905;28;20051;-71
2022/01/12 03:12:16;;;;;;;8.45;4.95;;;;;;;;;;5090966;28;20156;-72
2022/01/12 03:14:43;;;;;;;7.03;4.22;;;;;;;;;;5091160;28;20024;-72
2022/01/12 03:17:11;;;;;;;9.05;5.22;;;;;;;;;;5089850;28;20059;-73
2022/01/12 03:19:37;;;;;;;7.03;4.22;;;;;;;;;;5090922;28;20043;-68
2022/01/12 03:22:03;;;;;;;9.05;5.03;;;;;;;;;;5089825;28;20460;-67
2022/01/12 03:24:29;;;;;;;8.25;4.70;;;;;;;;;;5090866;28;20048;-64
2022/01/12 03:26:55;;;;;;;9.18;4.93;;;;;;;;;;5091107;28;20024;-71
2022/01/12 03:29:21;;;;;;;8.15;4.90;;;;;;;;;;5089565;28;20385;-66
2022/01/12 03:31:47;;;;;;;7.75;4.50;;;;;;;;;;5089651;28;20028;-68
2022/01/12 03:35:05;;;;;;;7.80;4.72;;;;;;;;;;5090914;28;20028;-72
2022/01/12 03:37:28;;;;;;;7.63;4.67;;;;;;;;;;5088635;28;20058;-72
2022/01/12 03:39:54;;;;;;;7.68;4.47;;;;;;;;;;5091129;28;20036;-68
2022/01/12 03:42:20;;;;;;;7.38;4.30;;;;;;;;;;5091028;28;20585;-73
2022/01/12 03:44:46;;;;;;;8.13;4.80;;;;;;;;;;5091026;28;20048;-70
2022/01/12 03:47:12;;;;;;;8.80;4.70;;;;;;;;;;5091148;28;20021;-67
2022/01/12 03:49:38;;;;;;;13.55;4.43;;;;;;;;;;5091063;28;20027;-68
2022/01/12 03:52:04;;;;;;;10.13;4.72;;;;;;;;;;5091501;28;20024;-68
2022/01/12 03:54:30;;;;;;;7.32;4.13;;;;;;;;;;5090677;28;20389;-78
2022/01/12 03:56:59;;;;;;;8.32;4.50;;;;;;;;;;5094500;28;20102;-79
2022/01/12 03:59:25;;;;;;;7.32;4.47;;;;;;;;;;5094591;28;20039;-77
2022/01/12 04:01:51;;;;;;;7.05;4.55;;;;;;;;;;5094654;28;20020;-81
2022/01/12 04:04:23;;;;;;;9.07;4.57;;;;;;;;;;5094620;28;20024;-79
2022/01/12 04:09:34;;;;;;;6.57;4.18;;;;;;;;;;5094462;28;20265;-74
2022/01/12 04:12:00;;;;;;;7.28;4.57;;;;;;;;;;5082595;28;20554;-69
2022/01/12 04:14:26;;;;;;;6.82;3.75;;;;;;;;;;5073950;28;20021;-73
2022/01/12 04:16:52;;;;;;;7.65;4.50;;;;;;;;;;5073853;28;20052;-73
2022/01/12 04:19:18;;;;;;;8.23;4.45;;;;;;;;;;5072423;28;20485;-70
2022/01/12 04:21:48;;;;;;;8.40;4.78;;;;;;;;;;5072611;28;20094;-72
2022/01/12 04:24:14;;;;;;;8.85;4.82;;;;;;;;;;5072239;28;20257;-72
2022/01/12 04:26:40;;;;;;;9.43;5.05;;;;;;;;;;5073879;28;20017;-82
2022/01/12 04:29:07;;;;;;;5.72;3.38;;;;;;;;;;5073632;28;20028;-74
2022/01/12 04:31:36;;;;;;;7.68;4.40;;;;;;;;;;5073546;28;20576;-72
2022/01/12 04:34:03;;;;;;;7.53;4.25;;;;;;;;;;5072349;28;20036;-76
2022/01/12 04:36:30;;;;;;;8.68;4.30;;;;;;;;;;5073371;28;20070;-70
2022/01/12 04:38:56;;;;;;;7.40;4.00;;;;;;;;;;5072562;28;20032;-79
2022/01/12 04:41:24;;;;;;;8.77;4.72;;;;;;;;;;5074390;28;20107;-85
2022/01/12 04:43:51;;;;;;;8.27;4.68;;;;;;;;;;5073815;28;20082;-81
2022/01/12 04:51:28;;;;;;;8.02;4.15;;;;;;;;;;5073816;28;20166;-77
2022/01/12 04:53:54;;;;;;;7.70;4.70;;;;;;;;;;5073924;28;20036;-72
2022/01/12 04:56:20;;;;;;;8.65;4.82;;;;;;;;;;5075297;28;20028;-72
2022/01/12 04:58:46;;;;;;;8.23;4.22;;;;;;;;;;5093680;28;20047;-76
2022/01/12 05:01:22;;;;;;;7.50;4.32;;;;;;;;;;5093343;28;20023;-71
2022/01/12 05:06:44;;;;;;;7.93;4.30;;;;;;;;;;5092391;28;20033;-67
2022/01/12 05:14:47;;;;;;;8.32;3.85;;;;;;;;;;5093651;28;20376;-72
2022/01/12 05:17:14;;;;;;;7.80;4.65;;;;;;;;;;5092745;28;20453;-72
2022/01/12 05:19:40;;;;;;;8.07;4.55;;;;;;;;;;5092703;28;20107;-69
2022/01/12 05:22:06;;;;;;;10.02;5.00;;;;;;;;;;5092780;28;20027;-73
2022/01/12 05:24:32;;;;;;;9.77;4.60;;;;;;;;;;5092627;28;20048;-73
2022/01/12 05:26:59;;;;;;;8.18;4.35;;;;;;;;;;5092872;28;20050;-69
2022/01/12 05:29:25;;;;;;;9.30;5.15;;;;;;;;;;5091264;28;20377;-73
2022/01/12 05:31:51;;;;;;;8.48;4.53;;;;;;;;;;5092681;28;20123;-63
2022/01/12 05:34:17;;;;;;;7.50;4.57;;;;;;;;;;5092600;28;20016;-70
2022/01/12 05:36:43;;;;;;;7.70;4.32;;;;;;;;;;5092481;28;20031;-71
2022/01/12 05:39:09;;;;;;;7.88;4.70;;;;;;;;;;5092394;28;20032;-68
2022/01/12 05:41:35;;;;;;;7.68;4.43;;;;;;;;;;5092508;28;20630;-65
2022/01/12 05:44:05;;;;;;;9.50;4.60;;;;;;;;;;5092689;28;20063;-70
2022/01/12 05:46:31;;;;;;;7.65;4.60;;;;;;;;;;5091187;28;20035;-76
2022/01/12 05:51:44;;;;;;;8.02;4.53;;;;;;;;;;5092290;28;20063;-68
2022/01/12 05:54:10;;;;;;;6.25;4.00;;;;;;;;;;5091006;28;20020;-66
2022/01/12 05:56:36;;;;;;;9.77;4.40;;;;;;;;;;5091872;28;20099;-68
2022/01/12 05:59:02;;;;;;;8.18;4.97;;;;;;;;;;5092087;28;20398;-72
2022/01/12 06:01:28;;;;;;;8.23;4.38;;;;;;;;;;5092184;28;20016;-71
2022/01/12 06:03:54;;;;;;;9.02;4.90;;;;;;;;;;5092296;28;20024;-71
2022/01/12 06:06:20;;;;;;;7.78;4.72;;;;;;;;;;5092203;28;20108;-74
2022/01/12 06:08:46;;;;;;;8.60;4.88;;;;;;;;;;5091944;28;20439;-69
2022/01/12 06:11:13;;;;;;;8.55;4.78;;;;;;;;;;5090196;28;20024;-71
2022/01/12 06:13:39;;;;;;;8.02;4.72;;;;;;;;;;5071808;28;20031;-71
2022/01/12 06:16:05;;;;;;;8.60;5.05;;;;;;;;;;5071605;28;20016;-75
2022/01/12 06:18:31;;;;;;;8.70;5.10;;;;;;;;;;5071299;28;20032;-69
2022/01/12 06:20:57;;;;;;;11.73;5.00;;;;;;;;;;5071573;28;20112;-70
2022/01/12 06:23:23;;;;;;;8.82;4.75;;;;;;;;;;5070221;28;20020;-67
2022/01/12 06:25:49;;;;;;;10.00;4.90;;;;;;;;;;5069986;28;20041;-66
2022/01/12 06:28:35;;;;;;;9.02;4.95;;;;;;;;;;5071432;28;20043;-73
2022/01/12 06:31:11;;;;;;;10.30;5.07;;;;;;;;;;5071471;28;20484;-77
2022/01/12 06:33:38;;;;;;;9.55;5.93;;;;;;;;;;5071288;28;20031;-76
2022/01/12 06:36:04;;;;;;;9.10;5.22;;;;;;;;;;5071326;28;20029;-73
2022/01/12 06:38:30;;;;;;;8.48;4.80;;;;;;;;;;5070796;28;20123;-73
2022/01/12 06:40:56;;;;;;;11.02;6.30;;;;;;;;;;5071337;28;20385;-71
2022/01/12 06:43:22;;;;;;;10.45;5.28;;;;;;;;;;5071215;28;20071;-73
2022/01/12 06:45:48;;;;;;;12.63;5.95;;;;;;;;;;5071515;28;20094;-71
2022/01/12 06:48:14;;;;;;;11.90;6.72;;;;;;;;;;5071515;28;20091;-67
2022/01/12 06:50:41;;;;;;;9.68;5.70;;;;;;;;;;5070081;28;20025;-76
2022/01/12 06:53:07;;;;;;;9.98;6.18;;;;;;;;;;5071188;28;20032;-72
2022/01/12 06:55:33;;;;;;;8.98;5.40;;;;;;;;;;5069691;28;20120;-75
2022/01/12 06:57:59;;;;;;;10.75;6.22;;;;;;;;;;5071586;28;20058;-73
2022/01/12 07:00:25;;;;;;;8.80;5.93;;;;;;;;;;5071348;28;20536;-79
2022/01/12 07:02:51;;;;;;;9.43;5.25;;;;;;;;;;5069717;28;20235;-69
2022/01/12 07:05:17;;;;;;;11.00;5.63;;;;;;;;;;5070894;28;20110;-71
2022/01/12 07:07:43;;;;;;;11.60;5.80;;;;;;;;;;5070832;28;20334;-73
2022/01/12 07:10:09;;;;;;;8.45;5.35;;;;;;;;;;5070990;28;20108;-73
2022/01/12 07:12:35;;;;;;;10.18;6.15;;;;;;;;;;5070905;28;20024;-72
2022/01/12 07:15:01;;;;;;;8.80;5.47;;;;;;;;;;5069760;28;20048;-78
2022/01/12 07:17:27;;;;;;;10.43;5.78;;;;;;;;;;5071004;28;20474;-75
2022/01/12 07:19:53;;;;;;;15.18;6.28;;;;;;;;;;5069869;28;20036;-74
2022/01/12 07:22:19;;;;;;;10.18;6.43;;;;;;;;;;5071108;28;20017;-69
2022/01/12 07:24:45;;;;;;;11.30;6.68;;;;;;;;;;5070916;28;20065;-71
2022/01/12 07:27:11;;;;;;;12.45;6.78;;;;;;;;;;5071183;28;20060;-72
2022/01/12 07:29:37;;;;;;;12.15;6.47;;;;;;;;;;5071700;28;20021;-74
2022/01/12 07:32:04;;;;;;;10.13;5.90;;;;;;;;;;5073360;28;20025;-72
2022/01/12 07:34:30;;;;;;;10.02;6.53;;;;;;;;;;5074596;28;20017;-71
2022/01/12 07:36:56;;;;;;;11.57;6.25;;;;;;;;;;5074764;28;20056;-83
2022/01/12 07:39:22;;;;;;;10.00;5.85;;;;;;;;;;5079829;28;20029;-85
2022/01/12 07:41:48;;;;;;;10.30;5.60;;;;;;;;;;5085554;28;20103;-69
2022/01/12 07:44:14;;;;;;;11.25;6.55;;;;;;;;;;5080270;28;20028;-74
2022/01/12 07:46:40;;;;;;;11.45;6.30;;;;;;;;;;5093506;28;20385;-75
2022/01/12 07:49:06;;;;;;;9.68;6.15;;;;;;;;;;5094364;28;20020;-73
2022/01/12 07:51:32;;;;;;;12.60;6.95;;;;;;;;;;5094617;28;20385;-71
2022/01/12 07:53:58;;;;;;;12.52;6.88;;;;;;;;;;5094593;28;20095;-77
2022/01/12 07:56:24;;;;;;;13.65;7.45;;;;;;;;;;5094419;28;20121;-76
2022/01/12 07:58:50;;;;;;;11.02;6.60;;;;;;;;;;5093156;28;20036;-73
2022/01/12 08:01:17;;;;;;;14.65;7.72;;;;;;;;;;5094422;28;20043;-69
2022/01/12 08:03:43;;;;;;;14.73;7.72;;;;;;;;;;5094351;28;20028;-68
2022/01/12 08:06:09;;;;;;;12.95;7.25;;;;;;;;;;5094382;28;20533;-72
2022/01/12 08:08:35;;;;;;;14.60;7.60;;;;;;;;;;5094237;28;20078;-70
2022/01/12 08:11:01;;;;;;;11.05;6.53;;;;;;;;;;5094236;28;20020;-73
2022/01/12 08:13:27;;;;;;;11.52;7.05;;;;;;;;;;5093919;28;20389;-72
2022/01/12 08:15:53;;;;;;;11.38;6.95;;;;;;;;;;5094218;28;20016;-73
2022/01/12 08:18:19;;;;;;;12.40;6.57;;;;;;;;;;5093883;28;20438;-71
2022/01/12 08:20:45;;;;;;;12.68;7.15;;;;;;;;;;5093955;28;20116;-72
2022/01/12 08:23:11;;;;;;;11.80;7.25;;;;;;;;;;5093791;28;20020;-73
2022/01/12 08:25:38;;;;;;;12.50;6.70;;;;;;;;;;5093765;28;20044;-70
2022/01/12 08:28:05;;;;;;;10.52;6.80;;;;;;;;;;5093893;28;20020;-65
2022/01/12 08:30:33;;;;;;;11.48;7.15;;;;;;;;;;5093932;28;20071;-72
2022/01/12 08:33:00;;;;;;;11.57;7.43;;;;;;;;;;5093858;28;20020;-73
2022/01/12 08:35:27;;;;;;;11.05;6.95;;;;;;;;;;5093859;28;20099;-73
2022/01/12 08:37:53;;;;;;;13.20;6.75;;;;;;;;;;5093771;28;20031;-71
2022/01/12 08:40:19;;;;;;;13.27;7.63;;;;;;;;;;5093704;28;20081;-76
2022/01/12 08:42:46;;;;;;;12.20;7.15;;;;;;;;;;5092482;28;20020;-73
2022/01/12 08:45:12;;;;;;;13.10;7.53;;;;;;;;;;5094125;28;20023;-72
2022/01/12 08:47:38;;;;;;;13.05;7.55;;;;;;;;;;5092435;28;20028;-71
2022/01/12 08:50:05;;;;;;;11.48;7.50;;;;;;;;;;5093929;28;20077;-79
2022/01/12 08:52:31;;;;;;;11.57;6.45;;;;;;;;;;5092806;28;20106;-81
2022/01/12 08:54:59;;;;;;;12.48;6.80;;;;;;;;;;5093816;28;20028;-68
2022/01/12 08:57:28;;;;;;;10.15;6.10;;;;;;;;;;5079965;28;20020;-72
2022/01/12 08:59:54;;;;;;;13.38;7.45;;;;;;;;;;5073149;28;20120;-69
2022/01/12 09:02:20;;;;;;;11.63;7.30;;;;;;;;;;5087853;28;20047;-77
2022/01/12 09:04:46;;;;;;;12.43;6.97;;;;;;;;;;5098702;28;20306;-72
2022/01/12 09:07:13;;;;;;;12.15;6.80;;;;;;;;;;5095916;28;20020;-74
2022/01/12 09:09:39;;;;;;;10.18;6.00;;;;;;;;;;5095445;28;20031;-77
2022/01/12 09:12:06;;;;;;;9.80;6.20;;;;;;;;;;5091863;28;20110;-69
2022/01/12 09:14:32;;;;;;;12.07;6.10;;;;;;;;;;5093129;28;20023;-71
2022/01/12 09:16:59;;;;;;;15.77;6.65;;;;;;;;;;5091715;28;20032;-70
2022/01/12 09:19:26;;;;;;;10.82;6.43;;;;;;;;;;5091500;28;20040;-67
2022/01/12 09:21:52;;;;;;;26.85;8.77;;;;;;;;;;5092914;28;20530;-69
2022/01/12 09:24:19;;;;;;;18.08;8.38;;;;;;;;;;5092732;28;20097;-67
2022/01/12 09:26:45;;;;;;;15.70;6.85;;;;;;;;;;5092846;28;20085;-69
2022/01/12 09:29:11;;;;;;;13.50;8.00;;;;;;;;;;5092766;28;20031;-76
2022/01/12 09:31:37;;;;;;;16.40;8.13;;;;;;;;;;5074375;28;20195;-79
2022/01/12 09:34:04;;;;;;;18.08;8.07;;;;;;;;;;5071574;28;20127;-79
2022/01/12 09:36:30;;;;;;;14.90;7.07;;;;;;;;;;5081372;28;20078;-71
2022/01/12 09:38:56;;;;;;;15.55;7.63;;;;;;;;;;5091124;28;20028;-76
2022/01/12 09:41:25;;;;;;;14.98;7.68;;;;;;;;;;5092096;28;20016;-75
2022/01/12 09:43:51;;;;;;;13.75;7.97;;;;;;;;;;5091929;28;20020;-76
2022/01/12 09:46:19;;;;;;;14.27;7.57;;;;;;;;;;5092026;28;20477;-73
2022/01/12 09:48:45;;;;;;;15.70;7.40;;;;;;;;;;5081660;28;20032;-77
2022/01/12 09:51:11;;;;;;;16.67;7.93;;;;;;;;;;5071660;28;20017;-75
2022/01/12 09:53:39;;;;;;;14.65;7.85;;;;;;;;;;5069443;28;20033;-75
2022/01/12 09:56:25;;;;;;;16.38;8.73;;;;;;;;;;5073177;28;20062;-73
2022/01/12 09:58:54;;;;;;;13.80;7.93;;;;;;;;;;5091233;28;20472;-74
2022/01/12 10:01:30;;;;;;;15.02;8.93;;;;;;;;;;5077359;28;20024;-63
2022/01/12 10:04:16;;;;;;;13.15;7.53;;;;;;;;;;5071900;28;20029;-79
2022/01/12 10:06:46;;;;;;;12.32;7.30;;;;;;;;;;5071843;28;20023;-81
2022/01/12 10:09:13;;;;;;;13.55;7.47;;;;;;;;;;5071763;28;20021;-81
2022/01/12 10:12:00;;;;;;;13.93;7.15;;;;;;;;;;5071970;28;20477;-77
2022/01/12 10:14:37;;;;;;;15.85;8.15;;;;;;;;;;5072117;28;20032;-84
2022/01/12 10:17:03;;;;;;;13.73;7.68;;;;;;;;;;5070442;28;20520;-79
2022/01/12 10:19:33;;;;;;;12.82;7.60;;;;;;;;;;5071365;28;20075;-72
2022/01/12 10:22:00;;;;;;;12.90;7.47;;;;;;;;;;5071584;28;20496;-75
2022/01/12 10:24:27;;;;;;;13.40;7.10;;;;;;;;;;5071807;28;20055;-77
2022/01/12 10:26:55;;;;;;;14.02;8.00;;;;;;;;;;5071836;28;20032;-74
2022/01/12 10:29:28;;;;;;;13.93;7.55;;;;;;;;;;5071316;28;20108;-75
2022/01/12 10:31:56;;;;;;;16.52;8.57;;;;;;;;;;5072136;28;20028;-67
2022/01/12 10:34:26;;;;;;;13.57;7.65;;;;;;;;;;5091332;28;20024;-69
2022/01/12 10:36:54;;;;;;;14.10;7.85;;;;;;;;;;5081493;28;20048;-77
2022/01/12 10:39:22;;;;;;;11.75;7.15;;;;;;;;;;5070855;28;20079;-76
2022/01/12 10:41:59;;;;;;;14.55;7.50;;;;;;;;;;5070954;28;20040;-78
2022/01/12 10:44:32;;;;;;;14.10;7.68;;;;;;;;;;5070553;28;20503;-77
2022/01/12 10:47:09;;;;;;;13.88;7.65;;;;;;;;;;5070778;28;20468;-76
2022/01/12 10:49:37;;;;;;;16.40;7.95;;;;;;;;;;5084580;28;20103;-72
2022/01/12 10:52:04;;;;;;;13.27;7.88;;;;;;;;;;5090996;28;20488;-73
2022/01/12 10:54:30;;;;;;;13.55;7.40;;;;;;;;;;5090991;28;20098;-72
2022/01/12 10:56:56;;;;;;;14.23;7.78;;;;;;;;;;5091024;28;20417;-75
2022/01/12 10:59:22;;;;;;;11.60;6.85;;;;;;;;;;5090957;28;20035;-76
2022/01/12 11:01:49;;;;;;;13.18;7.50;;;;;;;;;;5089637;28;20025;-70
2022/01/12 11:04:15;;;;;;;14.20;7.53;;;;;;;;;;5090233;28;20380;-75
2022/01/12 11:06:41;;;;;;;11.73;7.10;;;;;;;;;;5095004;28;20024;-76
2022/01/12 11:09:07;;;;;;;14.18;7.95;;;;;;;;;;5094486;28;20039;-70
2022/01/12 11:11:34;;;;;;;14.27;7.95;;;;;;;;;;5094924;28;20024;-71
2022/01/12 11:14:01;;;;;;;12.85;7.68;;;;;;;;;;5095293;28;20031;-76
2022/01/12 11:16:28;;;;;;;16.52;8.52;;;;;;;;;;5095501;28;20346;-77
2022/01/12 11:18:55;;;;;;;12.98;7.38;;;;;;;;;;5095217;28;20034;-73
2022/01/12 11:21:24;;;;;;;14.85;7.90;;;;;;;;;;5095262;28;20450;-74
2022/01/12 11:23:51;;;;;;;12.27;7.35;;;;;;;;;;5095229;28;20055;-77
2022/01/12 11:26:23;;;;;;;16.63;8.82;;;;;;;;;;5095053;28;20040;-71
2022/01/12 11:28:51;;;;;;;13.27;7.68;;;;;;;;;;5095161;28;20427;-73
2022/01/12 11:31:22;;;;;;;11.77;6.75;;;;;;;;;;5094879;28;20058;-72
2022/01/12 11:33:48;;;;;;;14.27;7.88;;;;;;;;;;5094865;28;20027;-78
2022/01/12 11:36:17;;;;;;;15.18;8.63;;;;;;;;;;5094859;28;20023;-75
2022/01/12 11:38:47;;;;;;;16.60;7.30;;;;;;;;;;5094689;28;20031;-67
2022/01/12 11:41:24;;;;;;;13.77;8.23;;;;;;;;;;5094874;28;20041;-69
2022/01/12 11:43:54;;;;;;;13.75;7.63;;;;;;;;;;5094884;28;20106;-78
2022/01/12 11:46:22;;;;;;;14.10;8.32;;;;;;;;;;5093543;28;20028;-72
2022/01/12 11:48:53;;;;;;;13.95;8.93;;;;;;;;;;5096008;28;20376;-77
2022/01/12 11:51:40;;;;;;;13.15;7.25;;;;;;;;;;5095958;28;20525;-78
2022/01/12 11:54:08;;;;;;;16.10;8.52;;;;;;;;;;5096207;28;20474;-63
2022/01/12 11:56:34;;;;;;;14.18;8.88;;;;;;;;;;5072314;28;20028;-75
2022/01/12 11:59:07;;;;;;;13.27;8.60;;;;;;;;;;5073485;28;20036;-77
2022/01/12 12:01:41;;;;;;;15.68;8.00;;;;;;;;;;5085192;28;20016;-66
2022/01/12 12:04:08;;;;;;;14.60;7.63;;;;;;;;;;5092658;28;20028;-67
2022/01/12 12:06:34;;;;;;;15.35;8.63;;;;;;;;;;5093994;28;20019;-74
2022/01/12 12:09:00;;;;;;;15.15;8.25;;;;;;;;;;5093740;28;20028;-78
2022/01/12 12:11:28;;;;;;;15.00;9.57;;;;;;;;;;5093165;28;20024;-64
2022/01/12 12:13:54;;;;;;;13.32;7.63;;;;;;;;;;5079116;28;20025;-77
2022/01/12 12:16:21;;;;;;;14.65;8.65;;;;;;;;;;5071347;28;20113;-71
2022/01/12 12:18:47;;;;;;;12.57;7.43;;;;;;;;;;5073524;28;20116;-69
2022/01/12 12:21:13;;;;;;;13.90;7.68;;;;;;;;;;5073308;28;20044;-71
2022/01/12 12:23:39;;;;;;;14.98;8.07;;;;;;;;;;5072897;28;20250;-66
2022/01/12 12:26:10;;;;;;;18.10;10.25;;;;;;;;;;5072759;28;20080;-72
2022/01/12 12:28:36;;;;;;;12.40;7.60;;;;;;;;;;5073330;28;20035;-63
2022/01/12 12:31:02;;;;;;;16.73;9.02;;;;;;;;;;5071947;28;20024;-65
2022/01/12 12:33:28;;;;;;;14.18;8.40;;;;;;;;;;5073148;28;20077;-73
2022/01/12 12:35:54;;;;;;;14.00;8.20;;;;;;;;;;5073067;28;20550;-67
2022/01/12 12:38:21;;;;;;;12.10;7.60;;;;;;;;;;5073583;28;20056;-72
2022/01/12 12:40:54;;;;;;;14.15;8.32;;;;;;;;;;5073316;28;20104;-74
2022/01/12 12:43:25;;;;;;;15.60;8.80;;;;;;;;;;5073180;28;20119;-68
2022/01/12 12:45:54;;;;;;;14.50;8.63;;;;;;;;;;5073370;28;20501;-70
2022/01/12 12:48:21;;;;;;;14.30;8.25;;;;;;;;;;5073256;28;20035;-68
2022/01/12 12:50:54;;;;;;;14.18;8.10;;;;;;;;;;5073368;28;20385;-71
2022/01/12 12:53:26;;;;;;;14.00;8.35;;;;;;;;;;5073146;28;20021;-66
2022/01/12 12:55:52;;;;;;;15.35;8.10;;;;;;;;;;5073401;28;20378;-74
2022/01/12 12:58:18;;;;;;;14.18;8.15;;;;;;;;;;5072716;28;20025;-72
2022/01/12 13:00:44;;;;;;;15.82;9.85;;;;;;;;;;5073006;28;20043;-72
2022/01/12 13:03:10;;;;;;;12.98;8.30;;;;;;;;;;5073022;28;20099;-72
2022/01/12 13:05:41;;;;;;;15.90;8.18;;;;;;;;;;5072734;28;20031;-71
2022/01/12 13:08:08;;;;;;;12.75;7.95;;;;;;;;;;5072935;28;20024;-72
2022/01/12 13:10:34;;;;;;;12.93;7.65;;;;;;;;;;5072978;28;20044;-66
2022/01/12 13:13:01;;;;;;;14.88;8.18;;;;;;;;;;5072905;28;20021;-64
2022/01/12 13:15:35;;;;;;;12.73;7.10;;;;;;;;;;5072853;28;20481;-73
2022/01/12 13:18:08;;;;;;;12.77;7.78;;;;;;;;;;5072768;28;20029;-69
2022/01/12 13:23:27;;;;;;;13.50;8.38;;;;;;;;;;5072765;28;20570;-69
2022/01/12 13:25:54;;;;;;;18.23;8.90;;;;;;;;;;5072258;28;20040;-73
2022/01/12 13:28:21;;;;;;;21.55;11.50;;;;;;;;;;5071684;28;20032;-75
2022/01/12 13:30:48;;;;;;;15.50;9.27;;;;;;;;;;5072230;28;20009;-80
2022/01/12 13:33:14;;;;;;;16.90;8.70;;;;;;;;;;5072374;28;20607;-71
2022/01/12 13:35:42;;;;;;;15.88;8.73;;;;;;;;;;5072794;28;20546;-81
2022/01/12 13:38:08;;;;;;;13.50;7.95;;;;;;;;;;5072416;28;20024;-72
2022/01/12 13:40:38;;;;;;;17.42;8.88;;;;;;;;;;5072638;28;20017;-80
2022/01/12 13:43:05;;;;;;;16.25;9.02;;;;;;;;;;5071336;28;20078;-75
2022/01/12 13:45:39;;;;;;;14.98;8.73;;;;;;;;;;5071613;28;20028;-84
2022/01/12 13:48:12;;;;;;;13.48;8.10;;;;;;;;;;5072785;28;20384;-75
2022/01/12 13:50:39;;;;;;;13.23;8.70;;;;;;;;;;5072523;28;20016;-74
2022/01/12 13:53:06;;;;;;;14.63;8.38;;;;;;;;;;5072626;28;20048;-75
2022/01/12 13:55:33;;;;;;;15.50;8.88;;;;;;;;;;5071543;28;20374;-84
2022/01/12 13:58:04;;;;;;;13.90;7.32;;;;;;;;;;5071271;28;20481;-74
2022/01/12 14:00:31;;;;;;;14.55;8.65;;;;;;;;;;5073206;28;20067;-83
2022/01/12 14:02:57;;;;;;;14.15;8.57;;;;;;;;;;5072432;28;20074;-81
2022/01/12 14:05:36;;;;;;;12.75;7.55;;;;;;;;;;5072014;28;20508;-80
2022/01/12 14:08:10;;;;;;;13.77;7.90;;;;;;;;;;5072719;28;20021;-75
2022/01/12 14:10:37;;;;;;;15.07;8.57;;;;;;;;;;5075321;28;20036;-71
2022/01/12 14:13:03;;;;;;;17.60;9.60;;;;;;;;;;5080058;28;20032;-77
2022/01/12 14:15:30;;;;;;;14.13;8.50;;;;;;;;;;5080564;28;20508;-71
2022/01/12 14:17:58;;;;;;;13.90;8.40;;;;;;;;;;5082190;28;20074;-78
2022/01/12 14:20:44;;;;;;;12.88;7.57;;;;;;;;;;5080942;28;20093;-79
2022/01/12 14:23:11;;;;;;;14.93;8.65;;;;;;;;;;5071574;28;20021;-81
2022/01/12 14:25:51;;;;;;;14.05;8.38;;;;;;;;;;5071186;28;20053;-77
2022/01/12 14:28:27;;;;;;;15.77;8.98;;;;;;;;;;5069845;28;20028;-81
2022/01/12 14:30:54;;;;;;;13.52;8.35;;;;;;;;;;5071466;28;20020;-81
2022/01/12 14:33:20;;;;;;;14.68;8.82;;;;;;;;;;5071512;28;20024;-77
2022/01/12 14:35:46;;;;;;;13.32;8.43;;;;;;;;;;5072553;28;20028;-79
2022/01/12 14:38:12;;;;;;;12.75;7.85;;;;;;;;;;5091114;28;20039;-76
2022/01/12 14:40:38;;;;;;;15.35;8.20;;;;;;;;;;5090454;28;20024;-82
2022/01/12 14:43:07;;;;;;;14.20;8.43;;;;;;;;;;5092222;28;20060;-80
2022/01/12 14:45:35;;;;;;;12.00;7.35;;;;;;;;;;5091604;28;20089;-83
2022/01/12 14:48:02;;;;;;;13.07;7.88;;;;;;;;;;5091780;28;20028;-84
2022/01/12 14:50:30;;;;;;;16.55;8.60;;;;;;;;;;5091936;28;20048;-77
2022/01/12 14:52:57;;;;;;;14.18;8.50;;;;;;;;;;5091743;28;20077;-80
2022/01/12 14:55:24;;;;;;;14.98;8.43;;;;;;;;;;5091795;28;20047;-84
2022/01/12 14:57:51;;;;;;;13.43;7.55;;;;;;;;;;5091590;28;20078;-85
2022/01/12 15:00:24;;;;;;;11.80;7.72;;;;;;;;;;5092302;28;20430;-84
2022/01/12 15:02:50;;;;;;;11.25;7.05;;;;;;;;;;5092336;28;20021;-70
2022/01/12 15:05:16;;;;;;;14.85;8.23;;;;;;;;;;5091710;28;20051;-83
2022/01/12 15:07:42;;;;;;;11.80;7.70;;;;;;;;;;5091376;28;20078;-69
2022/01/12 15:10:09;;;;;;;14.13;8.32;;;;;;;;;;5091785;28;20028;-76
2022/01/12 15:12:38;;;;;;;13.80;7.05;;;;;;;;;;5091792;28;20021;-83
2022/01/12 15:15:09;;;;;;;13.95;7.55;;;;;;;;;;5092385;28;20024;-71
2022/01/12 15:17:36;;;;;;;13.38;7.97;;;;;;;;;;5092660;28;20024;-84
2022/01/12 15:20:07;;;;;;;13.02;8.18;;;;;;;;;;5091280;28;20028;-81
2022/01/12 15:22:33;;;;;;;11.38;6.80;;;;;;;;;;5090527;28;20170;-70
2022/01/12 15:24:59;;;;;;;13.48;7.25;;;;;;;;;;5091123;28;20063;-63
2022/01/12 15:27:25;;;;;;;13.55;7.70;;;;;;;;;;5091241;28;20035;-68
2022/01/12 15:29:52;;;;;;;11.80;6.78;;;;;;;;;;5091596;28;20012;-67
2022/01/12 15:32:18;;;;;;;10.90;6.07;;;;;;;;;;5091334;28;20595;-68
2022/01/12 15:34:44;;;;;;;12.13;7.53;;;;;;;;;;5091076;28;20020;-79
2022/01/12 15:37:10;;;;;;;11.43;6.78;;;;;;;;;;5090914;28;20020;-80
2022/01/12 15:39:36;;;;;;;13.25;7.60;;;;;;;;;;5089624;28;20036;-74
2022/01/12 15:42:03;;;;;;;12.93;7.20;;;;;;;;;;5091501;28;20035;-83
2022/01/12 15:44:30;;;;;;;12.27;7.25;;;;;;;;;;5090486;28;20028;-81
2022/01/12 15:46:56;;;;;;;11.15;6.75;;;;;;;;;;5091438;28;20103;-82
2022/01/12 15:49:22;;;;;;;11.73;7.20;;;;;;;;;;5091478;28;20107;-82
2022/01/12 15:51:48;;;;;;;12.55;7.60;;;;;;;;;;5094636;28;20024;-71
2022/01/12 15:54:15;;;;;;;12.73;7.53;;;;;;;;;;5095227;28;20020;-70
2022/01/12 15:56:41;;;;;;;12.60;7.45;;;;;;;;;;5088497;28;20045;-77